Hauptseite
METAR-TAF:

METAR-TAF

Flughäfen :

Militärflugplatz Cognac-Châteaubernard

Cognac, Frankreich

Breite: 45-40N, Länge: 000-19W, Höhe: 30 m

Beobachtung

Neuester Wetterbericht von vor 26 Minuten, um 18:00 UTC
Wind 6 kt aus Ost
Temperatur 36°C
Luftfeuchtigkeit 17%
Luftdruck 1013 hPa
Sichtweite 10 km oder mehr
keine Wolken unter 1500 m und keine Kumulonimbus oder Gewitterwolken

METAR: LFBG 061800Z AUTO 09006KT CAVOK 36/07 Q1013 NOSIG

Zeit: 20:26 (18:26 UTC)

Prognose

Neuester Wetterbericht von vor 4 Stunden und 26 Minuten, um 14:00 UTC
Gültige Prognose vom 06 um 15 UTC bis 07 um 15 UTC
Wind 4 kt aus Ost
Sichtweite 10 km oder mehr
keine Wolken unter 1500 m und keine Kumulonimbus oder Gewitterwolken

TAF: LFBG 061400Z 0615/0715 09004KT CAVOK

Wetterbeobachtungen und Prognosen von mehr als 4000 Flughäfen (METAR und TAF Bericht).

Die verfügbaren Stationen werden durch gelbe und rote Markierungen auf der Karte dargestellt.

Führen Sie die Maus auf sie, um den Namen der Station zu sehen.

Darauf klicken, um die Beobachtung von Wetterbeobachtungen und Prognosen zu sehen.

Um die Karte zu ändern : klicken Sie auf den grünen Tasten mit einem schwarzen Kreuz Zum Vergrößern, auf den grünen Button mit einem Gedankenstrich zu verkleinern, oder auf die grünen Pfeile für benachbarte Karten.


METAR-TAF: